sensor_id;sensor_type;location;lat;lon;timestamp;pressure;altitude;pressure_sealevel;temperature;humidity
41843;BME280;74160;52.530;13.188;2024-01-30T00:01:16;102507.66;;;18.85;52.88
41843;BME280;74160;52.530;13.188;2024-01-30T00:03:41;102505.00;;;18.85;52.85
41843;BME280;74160;52.530;13.188;2024-01-30T00:06:06;102502.34;;;18.85;52.80
41843;BME280;74160;52.530;13.188;2024-01-30T00:08:32;102500.66;;;18.84;52.88
41843;BME280;74160;52.530;13.188;2024-01-30T00:10:57;102504.56;;;18.80;52.99
41843;BME280;74160;52.530;13.188;2024-01-30T00:13:22;102501.63;;;18.83;52.83
41843;BME280;74160;52.530;13.188;2024-01-30T00:15:47;102499.97;;;18.82;52.96
41843;BME280;74160;52.530;13.188;2024-01-30T00:18:13;102495.34;;;18.84;52.91
41843;BME280;74160;52.530;13.188;2024-01-30T00:20:38;102492.81;;;18.83;52.97
41843;BME280;74160;52.530;13.188;2024-01-30T00:23:04;102498.97;;;18.83;52.97
41843;BME280;74160;52.530;13.188;2024-01-30T00:25:29;102494.50;;;18.84;53.04
41843;BME280;74160;52.530;13.188;2024-01-30T00:27:54;102498.84;;;18.85;52.92
41843;BME280;74160;52.530;13.188;2024-01-30T00:30:20;102496.31;;;18.83;52.92
41843;BME280;74160;52.530;13.188;2024-01-30T00:32:45;102497.16;;;18.84;52.97
41843;BME280;74160;52.530;13.188;2024-01-30T00:35:11;102497.28;;;18.82;53.04
41843;BME280;74160;52.530;13.188;2024-01-30T00:37:36;102490.25;;;18.81;52.92
41843;BME280;74160;52.530;13.188;2024-01-30T00:40:01;102489.56;;;18.79;53.04
41843;BME280;74160;52.530;13.188;2024-01-30T00:42:26;102494.63;;;18.82;53.00
41843;BME280;74160;52.530;13.188;2024-01-30T00:44:52;102489.19;;;18.84;53.01
41843;BME280;74160;52.530;13.188;2024-01-30T00:47:17;102486.75;;;18.80;53.10
41843;BME280;74160;52.530;13.188;2024-01-30T00:49:42;102489.44;;;18.80;53.18
41843;BME280;74160;52.530;13.188;2024-01-30T00:52:08;102491.25;;;18.80;53.11
41843;BME280;74160;52.530;13.188;2024-01-30T00:54:33;102487.75;;;18.79;53.19
41843;BME280;74160;52.530;13.188;2024-01-30T00:56:58;102489.56;;;18.79;53.18
41843;BME280;74160;52.530;13.188;2024-01-30T00:59:24;102495.59;;;18.81;53.08
41843;BME280;74160;52.530;13.188;2024-01-30T01:01:49;102492.09;;;18.80;53.04
41843;BME280;74160;52.530;13.188;2024-01-30T01:04:15;102493.38;;;18.86;53.01
41843;BME280;74160;52.530;13.188;2024-01-30T01:06:40;102489.69;;;18.77;53.17
41843;BME280;74160;52.530;13.188;2024-01-30T01:09:10;102486.06;;;18.78;53.14
41843;BME280;74160;52.530;13.188;2024-01-30T01:11:35;102489.44;;;18.80;53.16
41843;BME280;74160;52.530;13.188;2024-01-30T01:14:00;102501.91;;;18.80;53.10
41843;BME280;74160;52.530;13.188;2024-01-30T01:16:26;102495.75;;;18.79;53.16
41843;BME280;74160;52.530;13.188;2024-01-30T01:18:51;102505.53;;;18.79;53.12
41843;BME280;74160;52.530;13.188;2024-01-30T01:21:16;102493.31;;;18.76;53.19
41843;BME280;74160;52.530;13.188;2024-01-30T01:23:41;102490.41;;;18.79;53.17
41843;BME280;74160;52.530;13.188;2024-01-30T01:26:07;102491.25;;;18.80;53.23
41843;BME280;74160;52.530;13.188;2024-01-30T01:28:34;102492.34;;;18.77;53.24
41843;BME280;74160;52.530;13.188;2024-01-30T01:31:00;102491.25;;;18.80;53.26
41843;BME280;74160;52.530;13.188;2024-01-30T01:33:30;102495.75;;;18.79;53.26
41843;BME280;74160;52.530;13.188;2024-01-30T01:35:55;102494.03;;;18.78;53.33
41843;BME280;74160;52.530;13.188;2024-01-30T01:38:20;102494.03;;;18.78;53.34
41843;BME280;74160;52.530;13.188;2024-01-30T01:40:46;102494.88;;;18.79;53.28
41843;BME280;74160;52.530;13.188;2024-01-30T01:43:11;102493.09;;;18.79;53.29
41843;BME280;74160;52.530;13.188;2024-01-30T01:45:36;102484.81;;;18.83;53.18
41843;BME280;74160;52.530;13.188;2024-01-30T01:48:01;102487.75;;;18.79;53.27
41843;BME280;74160;52.530;13.188;2024-01-30T01:50:27;102481.81;;;18.76;53.34
41843;BME280;74160;52.530;13.188;2024-01-30T01:52:52;102479.97;;;18.76;53.42
41843;BME280;74160;52.530;13.188;2024-01-30T01:55:19;102476.47;;;18.76;53.38
41843;BME280;74160;52.530;13.188;2024-01-30T01:57:47;102483.13;;;18.82;53.24
41843;BME280;74160;52.530;13.188;2024-01-30T02:00:12;102487.59;;;18.81;53.17
41843;BME280;74160;52.530;13.188;2024-01-30T02:02:38;102488.72;;;18.78;53.27
41843;BME280;74160;52.530;13.188;2024-01-30T02:05:04;102485.31;;;18.76;53.36
41843;BME280;74160;52.530;13.188;2024-01-30T02:07:29;102489.69;;;18.77;53.35
41843;BME280;74160;52.530;13.188;2024-01-30T02:09:55;102484.59;;;18.74;53.31
41843;BME280;74160;52.530;13.188;2024-01-30T02:12:20;102492.59;;;18.74;53.41
41843;BME280;74160;52.530;13.188;2024-01-30T02:14:45;102491.75;;;18.74;53.53
41843;BME280;74160;52.530;13.188;2024-01-30T02:17:11;102484.59;;;18.74;53.31
41843;BME280;74160;52.530;13.188;2024-01-30T02:19:36;102484.59;;;18.74;53.45
41843;BME280;74160;52.530;13.188;2024-01-30T02:22:02;102495.13;;;18.76;53.30
41843;BME280;74160;52.530;13.188;2024-01-30T02:24:27;102488.81;;;18.77;53.34
41843;BME280;74160;52.530;13.188;2024-01-30T02:26:53;102494.28;;;18.75;53.26
41843;BME280;74160;52.530;13.188;2024-01-30T02:29:18;102487.13;;;18.76;53.36
41843;BME280;74160;52.530;13.188;2024-01-30T02:31:43;102492.72;;;18.73;53.27
41843;BME280;74160;52.530;13.188;2024-01-30T02:34:10;102495.13;;;18.76;53.30
41843;BME280;74160;52.530;13.188;2024-01-30T02:36:36;102494.66;;;18.71;53.51
41843;BME280;74160;52.530;13.188;2024-01-30T02:39:01;102490.06;;;18.73;53.45
41843;BME280;74160;52.530;13.188;2024-01-30T02:41:26;102489.09;;;18.74;53.36
41843;BME280;74160;52.530;13.188;2024-01-30T02:43:51;102483.06;;;18.72;53.47
41843;BME280;74160;52.530;13.188;2024-01-30T02:46:17;102481.94;;;18.74;53.40
41843;BME280;74160;52.530;13.188;2024-01-30T02:48:42;102481.94;;;18.74;53.44
41843;BME280;74160;52.530;13.188;2024-01-30T02:51:07;102483.75;;;18.74;53.38
41843;BME280;74160;52.530;13.188;2024-01-30T02:53:33;102473.25;;;18.72;53.42
41843;BME280;74160;52.530;13.188;2024-01-30T02:55:58;102478.56;;;18.72;53.49
41843;BME280;74160;52.530;13.188;2024-01-30T02:58:23;102477.59;;;18.73;53.48
41843;BME280;74160;52.530;13.188;2024-01-30T03:00:48;102476.59;;;18.74;53.42
41843;BME280;74160;52.530;13.188;2024-01-30T03:03:13;102479.28;;;18.74;53.52
41843;BME280;74160;52.530;13.188;2024-01-30T03:05:39;102474.06;;;18.73;53.33
41843;BME280;74160;52.530;13.188;2024-01-30T03:08:04;102470.44;;;18.74;53.44
41843;BME280;74160;52.530;13.188;2024-01-30T03:10:29;102466.09;;;18.73;53.53
41843;BME280;74160;52.530;13.188;2024-01-30T03:12:55;102461.75;;;18.72;53.50
41843;BME280;74160;52.530;13.188;2024-01-30T03:15:20;102467.06;;;18.72;53.50
41843;BME280;74160;52.530;13.188;2024-01-30T03:17:45;102461.63;;;18.73;53.50
41843;BME280;74160;52.530;13.188;2024-01-30T03:20:10;102454.47;;;18.74;53.49
41843;BME280;74160;52.530;13.188;2024-01-30T03:22:36;102460.03;;;18.71;53.48
41843;BME280;74160;52.530;13.188;2024-01-30T03:25:03;102458.25;;;18.71;53.53
41843;BME280;74160;52.530;13.188;2024-01-30T03:27:28;102460.03;;;18.71;53.53
41843;BME280;74160;52.530;13.188;2024-01-30T03:29:54;102449.38;;;18.71;53.55
41843;BME280;74160;52.530;13.188;2024-01-30T03:32:19;102447.72;;;18.70;53.59
41843;BME280;74160;52.530;13.188;2024-01-30T03:34:44;102452.06;;;18.71;53.57
41843;BME280;74160;52.530;13.188;2024-01-30T03:37:09;102455.72;;;18.70;53.50
41843;BME280;74160;52.530;13.188;2024-01-30T03:39:34;102452.06;;;18.71;53.45
41843;BME280;74160;52.530;13.188;2024-01-30T03:42:01;102453.75;;;18.72;53.50
41843;BME280;74160;52.530;13.188;2024-01-30T03:44:26;102447.59;;;18.71;53.52
41843;BME280;74160;52.530;13.188;2024-01-30T03:46:52;102450.25;;;18.71;53.47
41843;BME280;74160;52.530;13.188;2024-01-30T03:49:17;102447.84;;;18.68;53.66
41843;BME280;74160;52.530;13.188;2024-01-30T03:51:42;102448.00;;;18.67;53.74
41843;BME280;74160;52.530;13.188;2024-01-30T03:54:07;102454.72;;;18.71;53.55
41843;BME280;74160;52.530;13.188;2024-01-30T03:56:33;102448.56;;;18.70;53.55
41843;BME280;74160;52.530;13.188;2024-01-30T03:58:58;102454.72;;;18.71;53.50
41843;BME280;74160;52.530;13.188;2024-01-30T04:01:25;102455.72;;;18.70;53.51
41843;BME280;74160;52.530;13.188;2024-01-30T04:03:50;102452.47;;;18.66;53.63
41843;BME280;74160;52.530;13.188;2024-01-30T04:06:16;102457.66;;;18.68;53.58
41843;BME280;74160;52.530;13.188;2024-01-30T04:08:41;102464.69;;;18.69;53.54
41843;BME280;74160;52.530;13.188;2024-01-30T04:11:06;102454.72;;;18.71;53.64
41843;BME280;74160;52.530;13.188;2024-01-30T04:13:32;102456.41;;;18.72;53.60
41843;BME280;74160;52.530;13.188;2024-01-30T04:15:59;102451.38;;;18.69;53.62
41843;BME280;74160;52.530;13.188;2024-01-30T04:18:24;102448.72;;;18.69;53.54
41843;BME280;74160;52.530;13.188;2024-01-30T04:20:49;102448.72;;;18.69;53.60
41843;BME280;74160;52.530;13.188;2024-01-30T04:23:14;102451.94;;;18.72;53.53
41843;BME280;74160;52.530;13.188;2024-01-30T04:25:39;102451.38;;;18.69;53.58
41843;BME280;74160;52.530;13.188;2024-01-30T04:28:05;102455.00;;;18.68;53.54
41843;BME280;74160;52.530;13.188;2024-01-30T04:30:30;102453.34;;;18.67;53.69
41843;BME280;74160;52.530;13.188;2024-01-30T04:32:55;102451.50;;;18.67;53.66
41843;BME280;74160;52.530;13.188;2024-01-30T04:35:20;102448.72;;;18.69;53.66
41843;BME280;74160;52.530;13.188;2024-01-30T04:37:48;102449.38;;;18.71;53.59
41843;BME280;74160;52.530;13.188;2024-01-30T04:40:13;102447.84;;;18.68;53.81
41843;BME280;74160;52.530;13.188;2024-01-30T04:42:39;102439.16;;;18.66;53.74
41843;BME280;74160;52.530;13.188;2024-01-30T04:45:05;102443.38;;;18.69;53.56
41843;BME280;74160;52.530;13.188;2024-01-30T04:47:30;102441.97;;;18.65;53.64
41843;BME280;74160;52.530;13.188;2024-01-30T04:49:55;102452.47;;;18.66;53.67
41843;BME280;74160;52.530;13.188;2024-01-30T04:52:20;102446.19;;;18.67;53.67
41843;BME280;74160;52.530;13.188;2024-01-30T04:54:46;102441.69;;;18.37;53.11
41843;BME280;74160;52.530;13.188;2024-01-30T04:57:11;102445.56;;;18.02;50.78
41843;BME280;74160;52.530;13.188;2024-01-30T04:59:37;102445.75;;;18.41;50.54
41843;BME280;74160;52.530;13.188;2024-01-30T05:02:02;102440.56;;;18.60;51.42
41843;BME280;74160;52.530;13.188;2024-01-30T05:04:27;102444.06;;;18.71;52.11
41843;BME280;74160;52.530;13.188;2024-01-30T05:06:53;102443.81;;;18.74;52.45
41843;BME280;74160;52.530;13.188;2024-01-30T05:09:18;102448.31;;;18.73;52.76
41843;BME280;74160;52.530;13.188;2024-01-30T05:11:44;102442.09;;;18.73;52.90
41843;BME280;74160;52.530;13.188;2024-01-30T05:14:09;102442.97;;;18.73;52.78
41843;BME280;74160;52.530;13.188;2024-01-30T05:16:36;102434.00;;;18.74;52.81
41843;BME280;74160;52.530;13.188;2024-01-30T05:19:01;102437.84;;;18.82;52.89
41843;BME280;74160;52.530;13.188;2024-01-30T05:21:26;102441.34;;;18.82;53.94
41843;BME280;74160;52.530;13.188;2024-01-30T05:23:51;102434.06;;;18.84;53.27
41843;BME280;74160;52.530;13.188;2024-01-30T05:26:17;102437.44;;;18.86;52.50
41843;BME280;74160;52.530;13.188;2024-01-30T05:28:42;102437.16;;;18.89;52.69
41843;BME280;74160;52.530;13.188;2024-01-30T05:31:09;102436.19;;;18.90;52.63
41843;BME280;74160;52.530;13.188;2024-01-30T05:33:35;102437.16;;;18.89;52.64
41843;BME280;74160;52.530;13.188;2024-01-30T05:36:00;102433.53;;;18.90;52.78
41843;BME280;74160;52.530;13.188;2024-01-30T05:38:25;102438.03;;;18.90;52.85
41843;BME280;74160;52.530;13.188;2024-01-30T05:40:50;102427.06;;;18.93;52.66
41843;BME280;74160;52.530;13.188;2024-01-30T05:43:16;102437.03;;;18.91;52.90
41843;BME280;74160;52.530;13.188;2024-01-30T05:45:41;102426.25;;;18.92;52.75
41843;BME280;74160;52.530;13.188;2024-01-30T05:48:06;102426.38;;;18.91;52.74
41843;BME280;74160;52.530;13.188;2024-01-30T05:50:31;102420.91;;;18.92;52.73
41843;BME280;74160;52.530;13.188;2024-01-30T05:52:57;102427.91;;;18.93;52.65
41843;BME280;74160;52.530;13.188;2024-01-30T05:55:22;102427.19;;;18.91;52.72
41843;BME280;74160;52.530;13.188;2024-01-30T05:57:47;102422.59;;;18.93;52.72
41843;BME280;74160;52.530;13.188;2024-01-30T06:00:13;102421.50;;;18.96;52.78
41843;BME280;74160;52.530;13.188;2024-01-30T06:02:38;102420.63;;;18.95;52.72
41843;BME280;74160;52.530;13.188;2024-01-30T06:05:03;102414.34;;;18.96;52.66
41843;BME280;74160;52.530;13.188;2024-01-30T06:07:29;102418.94;;;18.94;52.64
41843;BME280;74160;52.530;13.188;2024-01-30T06:09:54;102421.34;;;18.97;52.75
41843;BME280;74160;52.530;13.188;2024-01-30T06:12:19;102416.00;;;18.97;52.59
41843;BME280;74160;52.530;13.188;2024-01-30T06:14:44;102412.50;;;18.97;52.50
41843;BME280;74160;52.530;13.188;2024-01-30T06:17:10;102408.00;;;18.97;52.75
41843;BME280;74160;52.530;13.188;2024-01-30T06:19:36;102407.75;;;19.00;52.54
41843;BME280;74160;52.530;13.188;2024-01-30T06:22:02;102413.34;;;18.97;52.76
41843;BME280;74160;52.530;13.188;2024-01-30T06:24:27;102417.69;;;18.98;52.62
41843;BME280;74160;52.530;13.188;2024-01-30T06:26:53;102415.03;;;18.98;52.65
41843;BME280;74160;52.530;13.188;2024-01-30T06:29:18;102417.00;;;18.96;52.83
41843;BME280;74160;52.530;13.188;2024-01-30T06:31:43;102414.47;;;18.95;52.74
41843;BME280;74160;52.530;13.188;2024-01-30T06:34:09;102417.25;;;18.93;53.30
41843;BME280;74160;52.530;13.188;2024-01-30T06:36:34;102413.88;;;18.91;52.88
41843;BME280;74160;52.530;13.188;2024-01-30T06:38:59;102409.25;;;18.93;52.76
41843;BME280;74160;52.530;13.188;2024-01-30T06:41:25;102411.53;;;18.98;52.75
41843;BME280;74160;52.530;13.188;2024-01-30T06:43:50;102410.53;;;18.99;52.68
41843;BME280;74160;52.530;13.188;2024-01-30T06:46:15;102413.34;;;18.97;52.64
41843;BME280;74160;52.530;13.188;2024-01-30T06:48:40;102413.34;;;18.97;52.79
41843;BME280;74160;52.530;13.188;2024-01-30T06:51:06;102411.66;;;18.96;52.76
41843;BME280;74160;52.530;13.188;2024-01-30T06:53:31;102414.34;;;18.96;54.18
41843;BME280;74160;52.530;13.188;2024-01-30T06:55:57;102416.72;;;18.90;55.12
41843;BME280;74160;52.530;13.188;2024-01-30T06:58:22;102412.25;;;18.69;53.53
41843;BME280;74160;52.530;13.188;2024-01-30T07:00:47;102410.81;;;18.04;50.08
41843;BME280;74160;52.530;13.188;2024-01-30T07:03:12;102419.53;;;17.85;48.30
41843;BME280;74160;52.530;13.188;2024-01-30T07:05:39;102413.75;;;18.22;50.27
41843;BME280;74160;52.530;13.188;2024-01-30T07:08:04;102410.84;;;18.34;51.33
41843;BME280;74160;52.530;13.188;2024-01-30T07:10:30;102412.00;;;18.41;52.12
41843;BME280;74160;52.530;13.188;2024-01-30T07:12:56;102413.03;;;18.50;52.46
41843;BME280;74160;52.530;13.188;2024-01-30T07:15:21;102416.66;;;18.49;52.84
41843;BME280;74160;52.530;13.188;2024-01-30T07:17:47;102420.16;;;18.50;53.03
41843;BME280;74160;52.530;13.188;2024-01-30T07:20:12;102409.50;;;18.50;53.18
41843;BME280;74160;52.530;13.188;2024-01-30T07:22:37;102403.63;;;18.46;53.37
41843;BME280;74160;52.530;13.188;2024-01-30T07:25:03;102404.19;;;18.50;53.62
41843;BME280;74160;52.530;13.188;2024-01-30T07:27:28;102405.06;;;18.50;53.54
41843;BME280;74160;52.530;13.188;2024-01-30T07:29:53;102394.25;;;18.52;53.54
41843;BME280;74160;52.530;13.188;2024-01-30T07:32:19;102400.69;;;18.49;53.80
41843;BME280;74160;52.530;13.188;2024-01-30T07:34:44;102404.06;;;18.51;53.69
41843;BME280;74160;52.530;13.188;2024-01-30T07:37:09;102402.38;;;18.50;53.93
41843;BME280;74160;52.530;13.188;2024-01-30T07:39:35;102403.81;;;18.54;53.97
41843;BME280;74160;52.530;13.188;2024-01-30T07:42:01;102402.22;;;18.52;54.02
41843;BME280;74160;52.530;13.188;2024-01-30T07:44:26;102405.59;;;18.54;53.93
41843;BME280;74160;52.530;13.188;2024-01-30T07:46:51;102405.88;;;18.51;54.22
41843;BME280;74160;52.530;13.188;2024-01-30T07:49:16;102404.06;;;18.51;54.17
41843;BME280;74160;52.530;13.188;2024-01-30T07:51:41;102400.44;;;18.52;54.29
41843;BME280;74160;52.530;13.188;2024-01-30T07:54:08;102402.81;;;18.55;54.28
41843;BME280;74160;52.530;13.188;2024-01-30T07:56:33;102410.09;;;18.53;54.28
41843;BME280;74160;52.530;13.188;2024-01-30T07:58:58;102407.44;;;18.53;54.37
41843;BME280;74160;52.530;13.188;2024-01-30T08:01:23;102409.84;;;18.56;54.39
41843;BME280;74160;52.530;13.188;2024-01-30T08:03:49;102402.94;;;18.54;54.41
41843;BME280;74160;52.530;13.188;2024-01-30T08:06:14;102404.50;;;18.56;54.53
41843;BME280;74160;52.530;13.188;2024-01-30T08:08:39;102410.81;;;18.55;54.46
41843;BME280;74160;52.530;13.188;2024-01-30T08:11:04;102416.00;;;18.57;54.48
41843;BME280;74160;52.530;13.188;2024-01-30T08:13:30;102413.47;;;18.55;54.55
41843;BME280;74160;52.530;13.188;2024-01-30T08:15:55;102414.31;;;18.56;54.60
41843;BME280;74160;52.530;13.188;2024-01-30T08:18:20;102409.97;;;18.55;54.62
41843;BME280;74160;52.530;13.188;2024-01-30T08:20:46;102416.13;;;18.55;54.72
41843;BME280;74160;52.530;13.188;2024-01-30T08:23:11;102415.16;;;18.56;54.58
41843;BME280;74160;52.530;13.188;2024-01-30T08:25:36;102414.47;;;18.54;54.65
41843;BME280;74160;52.530;13.188;2024-01-30T08:28:01;102409.13;;;18.54;54.74
41843;BME280;74160;52.530;13.188;2024-01-30T08:30:27;102402.09;;;18.53;54.70
41843;BME280;74160;52.530;13.188;2024-01-30T08:32:52;102404.75;;;18.53;54.77
41843;BME280;74160;52.530;13.188;2024-01-30T08:35:17;102411.63;;;18.56;54.83
41843;BME280;74160;52.530;13.188;2024-01-30T08:37:43;102395.66;;;18.56;54.82
41843;BME280;74160;52.530;13.188;2024-01-30T08:40:08;102397.38;;;18.57;54.81
41843;BME280;74160;52.530;13.188;2024-01-30T08:42:33;102393.00;;;18.56;54.77
41843;BME280;74160;52.530;13.188;2024-01-30T08:44:59;102395.53;;;18.57;54.81
41843;BME280;74160;52.530;13.188;2024-01-30T08:47:24;102403.66;;;18.56;54.73
41843;BME280;74160;52.530;13.188;2024-01-30T08:49:50;102405.59;;;18.54;54.91
41843;BME280;74160;52.530;13.188;2024-01-30T08:52:15;102398.19;;;18.57;54.75
41843;BME280;74160;52.530;13.188;2024-01-30T08:54:40;102402.81;;;18.55;54.88
41843;BME280;74160;52.530;13.188;2024-01-30T08:57:05;102403.81;;;18.54;54.88
41843;BME280;74160;52.530;13.188;2024-01-30T08:59:31;102401.97;;;18.55;54.91
41843;BME280;74160;52.530;13.188;2024-01-30T09:01:56;102398.47;;;18.54;54.92
41843;BME280;74160;52.530;13.188;2024-01-30T09:04:23;102401.16;;;18.54;54.95
41843;BME280;74160;52.530;13.188;2024-01-30T09:06:48;102392.75;;;18.59;54.91
41843;BME280;74160;52.530;13.188;2024-01-30T09:09:14;102394.81;;;18.55;54.96
41843;BME280;74160;52.530;13.188;2024-01-30T09:11:39;102390.22;;;18.57;54.90
41843;BME280;74160;52.530;13.188;2024-01-30T09:14:04;102396.38;;;18.58;54.86
41843;BME280;74160;52.530;13.188;2024-01-30T09:16:30;102393.00;;;18.56;54.90
41843;BME280;74160;52.530;13.188;2024-01-30T09:18:55;102387.66;;;18.56;54.96
41843;BME280;74160;52.530;13.188;2024-01-30T09:21:20;102386.59;;;18.58;54.96
41843;BME280;74160;52.530;13.188;2024-01-30T09:23:45;102393.88;;;18.56;55.04
41843;BME280;74160;52.530;13.188;2024-01-30T09:26:11;102394.56;;;18.58;54.87
41843;BME280;74160;52.530;13.188;2024-01-30T09:28:37;102399.03;;;18.58;54.93
41843;BME280;74160;52.530;13.188;2024-01-30T09:31:03;102395.41;;;18.59;54.95
41843;BME280;74160;52.530;13.188;2024-01-30T09:33:28;102393.56;;;18.59;54.78
41843;BME280;74160;52.530;13.188;2024-01-30T09:35:53;102394.56;;;18.58;55.03
41843;BME280;74160;52.530;13.188;2024-01-30T09:38:18;102395.28;;;18.60;54.87
41843;BME280;74160;52.530;13.188;2024-01-30T09:40:44;102394.41;;;18.60;55.03
41843;BME280;74160;52.530;13.188;2024-01-30T09:43:10;102390.91;;;18.59;55.06
41843;BME280;74160;52.530;13.188;2024-01-30T09:45:41;102384.47;;;18.62;54.88
41843;BME280;74160;52.530;13.188;2024-01-30T09:48:07;102389.94;;;18.60;55.00
41843;BME280;74160;52.530;13.188;2024-01-30T09:50:32;102391.03;;;18.58;55.12
41843;BME280;74160;52.530;13.188;2024-01-30T09:53:01;102388.97;;;18.61;54.92
41843;BME280;74160;52.530;13.188;2024-01-30T09:55:26;102383.75;;;18.60;54.89
41843;BME280;74160;52.530;13.188;2024-01-30T09:57:52;102384.47;;;18.62;55.00
41843;BME280;74160;52.530;13.188;2024-01-30T10:00:17;102380.97;;;18.61;54.92
41843;BME280;74160;52.530;13.188;2024-01-30T10:02:42;102378.19;;;18.63;54.82
41843;BME280;74160;52.530;13.188;2024-01-30T10:05:08;102372.84;;;18.63;54.76
41843;BME280;74160;52.530;13.188;2024-01-30T10:07:33;102378.59;;;18.68;54.81
41843;BME280;74160;52.530;13.188;2024-01-30T10:09:59;102367.94;;;18.68;54.78
41843;BME280;74160;52.530;13.188;2024-01-30T10:12:27;102365.44;;;18.67;54.91
41843;BME280;74160;52.530;13.188;2024-01-30T10:14:53;102375.53;;;18.63;55.01
41843;BME280;74160;52.530;13.188;2024-01-30T10:17:19;102373.56;;;18.65;54.89
41843;BME280;74160;52.530;13.188;2024-01-30T10:19:46;102376.34;;;18.64;55.09
41843;BME280;74160;52.530;13.188;2024-01-30T10:22:11;102374.53;;;18.64;54.83
41843;BME280;74160;52.530;13.188;2024-01-30T10:24:37;102375.22;;;18.66;54.88
41843;BME280;74160;52.530;13.188;2024-01-30T10:27:02;102370.78;;;18.67;54.84
41843;BME280;74160;52.530;13.188;2024-01-30T10:29:27;102368.13;;;18.67;54.76
41843;BME280;74160;52.530;13.188;2024-01-30T10:32:02;102365.28;;;18.68;54.73
41843;BME280;74160;52.530;13.188;2024-01-30T10:34:28;102372.56;;;18.66;54.88
41843;BME280;74160;52.530;13.188;2024-01-30T10:36:57;102362.06;;;18.65;54.82
41843;BME280;74160;52.530;13.188;2024-01-30T10:39:25;102363.50;;;18.69;54.85
41843;BME280;74160;52.530;13.188;2024-01-30T10:41:51;102368.66;;;18.70;54.86
41843;BME280;74160;52.530;13.188;2024-01-30T10:44:20;102360.53;;;18.72;54.73
41843;BME280;74160;52.530;13.188;2024-01-30T10:46:49;102361.50;;;18.71;54.90
41843;BME280;74160;52.530;13.188;2024-01-30T10:49:15;102355.91;;;18.74;54.67
41843;BME280;74160;52.530;13.188;2024-01-30T10:51:41;102356.63;;;18.76;54.66
41843;BME280;74160;52.530;13.188;2024-01-30T10:54:07;102361.44;;;18.82;54.47
41843;BME280;74160;52.530;13.188;2024-01-30T10:56:33;102355.56;;;18.88;54.42
41843;BME280;74160;52.530;13.188;2024-01-30T10:58:58;102368.47;;;18.93;54.29
41843;BME280;74160;52.530;13.188;2024-01-30T11:01:25;102358.25;;;18.98;54.12
41843;BME280;74160;52.530;13.188;2024-01-30T11:03:51;102355.59;;;18.98;54.17
41843;BME280;74160;52.530;13.188;2024-01-30T11:06:16;102359.78;;;19.00;54.19
41843;BME280;74160;52.530;13.188;2024-01-30T11:08:43;102356.56;;;19.07;53.98
41843;BME280;74160;52.530;13.188;2024-01-30T11:11:08;102350.53;;;19.05;54.00
41843;BME280;74160;52.530;13.188;2024-01-30T11:13:34;102347.88;;;19.05;53.92
41843;BME280;74160;52.530;13.188;2024-01-30T11:16:05;102348.13;;;19.01;54.16
41843;BME280;74160;52.530;13.188;2024-01-30T11:18:31;102355.41;;;18.99;54.20
41843;BME280;74160;52.530;13.188;2024-01-30T11:20:59;102347.59;;;18.98;54.23
41843;BME280;74160;52.530;13.188;2024-01-30T11:23:27;102344.94;;;18.98;54.36
41843;BME280;74160;52.530;13.188;2024-01-30T11:25:53;102351.94;;;18.99;54.28
41843;BME280;74160;52.530;13.188;2024-01-30T11:28:19;102349.38;;;18.97;54.29
41843;BME280;74160;52.530;13.188;2024-01-30T11:30:45;102348.69;;;18.95;54.37
41843;BME280;74160;52.530;13.188;2024-01-30T11:33:12;102340.69;;;18.95;54.37
41843;BME280;74160;52.530;13.188;2024-01-30T11:35:39;102347.56;;;18.88;54.65
41843;BME280;74160;52.530;13.188;2024-01-30T11:38:05;102347.81;;;18.85;54.66
41843;BME280;74160;52.530;13.188;2024-01-30T11:40:31;102349.41;;;18.88;54.66
41843;BME280;74160;52.530;13.188;2024-01-30T11:42:58;102340.53;;;18.87;54.60
41843;BME280;74160;52.530;13.188;2024-01-30T11:45:24;102344.19;;;18.86;54.72
41843;BME280;74160;52.530;13.188;2024-01-30T11:47:49;102340.41;;;18.89;54.57
41843;BME280;74160;52.530;13.188;2024-01-30T11:50:15;102352.59;;;18.91;54.51
41843;BME280;74160;52.530;13.188;2024-01-30T11:52:40;102345.47;;;18.92;54.58
41843;BME280;74160;52.530;13.188;2024-01-30T11:55:06;102346.03;;;18.95;54.46
41843;BME280;74160;52.530;13.188;2024-01-30T11:57:33;102334.25;;;18.98;54.32
41843;BME280;74160;52.530;13.188;2024-01-30T12:00:00;102340.00;;;18.93;54.40
41843;BME280;74160;52.530;13.188;2024-01-30T12:02:25;102327.81;;;19.00;54.34
41843;BME280;74160;52.530;13.188;2024-01-30T12:04:50;102331.72;;;18.96;54.41
41843;BME280;74160;52.530;13.188;2024-01-30T12:07:15;102324.00;;;18.93;54.49
41843;BME280;74160;52.530;13.188;2024-01-30T12:09:41;102323.84;;;18.85;54.62
41843;BME280;74160;52.530;13.188;2024-01-30T12:12:07;102311.09;;;18.89;54.65
41843;BME280;74160;52.530;13.188;2024-01-30T12:14:36;102311.09;;;18.89;54.67
41843;BME280;74160;52.530;13.188;2024-01-30T12:17:02;102307.59;;;18.88;54.74
41843;BME280;74160;52.530;13.188;2024-01-30T12:19:27;102305.78;;;18.89;54.72
41843;BME280;74160;52.530;13.188;2024-01-30T12:21:56;102303.41;;;19.15;54.17
41843;BME280;74160;52.530;13.188;2024-01-30T12:24:24;102301.81;;;19.61;52.99
41843;BME280;74160;52.530;13.188;2024-01-30T12:26:49;102288.31;;;19.72;52.67
41843;BME280;74160;52.530;13.188;2024-01-30T12:29:15;102290.56;;;19.67;52.90
41843;BME280;74160;52.530;13.188;2024-01-30T12:31:41;102280.16;;;19.64;53.41